Fosses-la-Ville, Belgium
Current Conditions -  °F | °C
As of 4:55 AM on Tuesday 23 Dec 2014 (Local Time) from EBFS Reporting Station
Broken Clouds Broken Clouds  
Wind Chill: 42°   Ceiling: 2200
Heat Index: 48°   Visibility: 6mi
Dew Point: 45°   Wind: 16mph
Humidity: 87%   Direction: 230°SW
Pressure: 30.18"   Gusts: NA
Location:  50.4°N, 4.7°E
Report Text: EBFS 230355Z 23014KT 9999 SCT012 BKN022 09/07 Q1022 GRN
Loading
Personal Weather Stations






























Interactive Weather Map New forecast layout! Learn more

10-Day Weather Forecast

Advertisements
Track Severe Weather on mobile